Weather at Edinburgh Airport

Public forecast

Using degrees Celsius for public forecast. Weather courtesy of forecast.io.

Current aviation weather report (METAR) for Edinburgh Airport

Retrieved 2022/01/28 18:50 UTC (26 minutes ago):

EGPH 281850Z 24013KT 9999 BKN015 10/07 Q1019

Aviation forecast (TAF) for Edinburgh Airport

Retrieved 2022/01/28 18:00 UTC (1 hour ago):

TAF EGPH 281657Z 2818/2918 23016G26KT 9999 BKN017 BECMG 2818/2821 26022G36KT TEMPO 2818/2908 8000 -RA BKN014 PROB30 TEMPO 2820/2903 BKN008 TEMPO 2904/2907 25028G46KT BECMG 2907/2910 27023G50KT PROB40 TEMPO 2907/2910 28032G60KT PROB30 TEMPO 2909/2915 7000 -SHRA BECMG 2910/2912 28023G40KT BECMG 2914/2917 27014KT